Time;durP1;ratioP1;P1;durP2;ratioP2;P2;SDS_P1;SDS_P2;PMS_P1;PMS_P2;Temp;Humidity;BMP_temperature;BMP_pressure;BME280_temperature;BME280_humidity;BME280_pressure;Samples;Min_cycle;Max_cycle;Signal;HPM_P1;HPM_P2
2024/04/04 00:02:33;;;;;;;3.57;3.27;;;10.60;99.90;;;;;;6299766;22;20410;-84
2024/04/04 00:08:02;;;;;;;3.13;2.93;;;10.60;99.90;;;;;;6300044;22;20395;-85
2024/04/04 00:10:50;;;;;;;3.80;3.50;;;10.60;99.90;;;;;;6298943;22;20444;-84
2024/04/04 00:13:28;;;;;;;3.00;2.80;;;10.60;99.90;;;;;;6292634;22;20375;-85
2024/04/04 00:22:05;;;;;;;2.33;2.23;;;10.60;99.90;;;;;;6286582;22;20412;-85
2024/04/04 00:24:39;;;;;;;2.10;2.00;;;10.50;99.90;;;;;;6291888;22;20439;-85
2024/04/04 00:27:09;;;;;;;3.47;2.00;;;10.40;99.90;;;;;;6290845;22;20395;-85
2024/04/04 00:29:39;;;;;;;1.80;1.70;;;10.50;99.90;;;;;;6296015;22;20424;-86
2024/04/04 00:32:08;;;;;;;2.77;2.53;;;10.50;99.90;;;;;;6298584;22;20488;-84
2024/04/04 00:34:35;;;;;;;2.20;2.10;;;10.50;99.90;;;;;;6299089;22;20398;-85
2024/04/04 00:37:07;;;;;;;3.20;2.10;;;10.50;99.90;;;;;;6301677;22;20407;-84
2024/04/04 00:39:39;;;;;;;2.77;2.57;;;10.50;99.90;;;;;;6294229;22;20407;-84
2024/04/04 00:42:50;;;;;;;2.00;1.90;;;10.50;99.90;;;;;;6291746;22;20379;-85
2024/04/04 00:45:18;;;;;;;2.30;2.10;;;10.50;99.90;;;;;;6221589;22;20429;-85
2024/04/04 00:47:50;;;;;;;3.47;2.57;;;10.50;99.90;;;;;;6291881;22;20386;-84
2024/04/04 00:50:17;;;;;;;2.37;2.17;;;10.50;99.90;;;;;;6299139;22;20404;-84
2024/04/04 00:52:50;;;;;;;2.80;2.53;;;10.50;99.90;;;;;;6299177;22;20497;-85
2024/04/04 00:55:19;;;;;;;2.70;2.23;;;10.40;99.90;;;;;;6292374;22;20900;-84
2024/04/04 00:57:54;;;;;;;4.23;3.00;;;10.50;99.90;;;;;;6291184;22;20412;-84
2024/04/04 01:00:26;;;;;;;2.60;2.40;;;10.40;99.90;;;;;;6290992;22;20435;-85
2024/04/04 01:02:55;;;;;;;2.57;2.37;;;10.40;99.90;;;;;;6292258;22;20394;-85
2024/04/04 01:05:35;;;;;;;2.63;2.43;;;10.40;99.90;;;;;;6291516;22;20393;-84
2024/04/04 01:08:56;;;;;;;3.07;2.83;;;10.50;99.90;;;;;;6292481;22;20408;-85
2024/04/04 01:11:23;;;;;;;4.53;2.93;;;10.50;99.90;;;;;;6282222;22;20443;-84
2024/04/04 01:13:53;;;;;;;3.43;3.13;;;10.50;99.90;;;;;;6291814;22;20408;-86
2024/04/04 01:16:20;;;;;;;5.63;3.50;;;10.50;99.90;;;;;;6292713;22;20460;-84
2024/04/04 01:22:05;;;;;;;3.50;3.20;;;10.30;99.90;;;;;;6287375;22;20396;-85
2024/04/04 01:44:30;;;;;;;2.97;2.77;;;10.30;99.90;;;;;;6104900;23;20407;-85
2024/04/04 01:47:11;;;;;;;3.23;2.93;;;10.30;99.90;;;;;;6293658;22;20849;-85
2024/04/04 01:49:38;;;;;;;3.17;2.97;;;10.30;99.90;;;;;;6296116;22;20455;-85
2024/04/04 01:52:48;;;;;;;5.03;2.90;;;10.30;99.90;;;;;;6294223;22;20776;-85
2024/04/04 01:55:44;;;;;;;3.40;3.10;;;10.20;99.90;;;;;;6266340;22;20440;-85
2024/04/04 01:58:10;;;;;;;3.03;2.83;;;10.30;99.90;;;;;;6215101;22;20443;-85
2024/04/04 02:00:39;;;;;;;3.70;3.20;;;10.30;99.90;;;;;;6295891;22;20408;-86
2024/04/04 02:03:05;;;;;;;3.00;2.80;;;10.30;99.90;;;;;;6295340;22;20458;-84
2024/04/04 02:05:35;;;;;;;3.33;3.00;;;10.20;99.90;;;;;;6296914;22;20420;-85
2024/04/04 02:11:20;;;;;;;4.60;2.67;;;10.30;99.90;;;;;;6305057;22;20396;-84
2024/04/04 02:13:46;;;;;;;2.80;2.60;;;10.30;99.90;;;;;;6306535;22;20452;-83
2024/04/04 02:16:18;;;;;;;3.03;2.73;;;10.30;99.90;;;;;;6304900;22;20444;-85
2024/04/04 02:19:21;;;;;;;2.60;2.40;;;10.30;99.90;;;;;;6304377;22;20398;-85
2024/04/04 02:21:48;;;;;;;3.33;3.10;;;10.30;99.90;;;;;;6283051;22;20914;-85
2024/04/04 02:24:17;;;;;;;3.37;2.90;;;10.30;99.90;;;;;;6297532;22;20383;-84
2024/04/04 02:26:48;;;;;;;3.77;3.23;;;10.30;99.90;;;;;;6298778;22;20418;-84
2024/04/04 02:29:14;;;;;;;4.00;3.00;;;10.30;99.90;;;;;;6298809;22;20403;-85
2024/04/04 02:31:43;;;;;;;3.23;3.03;;;10.30;99.90;;;;;;6268821;22;20375;-84
2024/04/04 02:34:12;;;;;;;6.80;3.40;;;10.20;99.90;;;;;;6293927;22;20467;-85
2024/04/04 02:37:06;;;;;;;3.40;3.20;;;10.20;99.90;;;;;;6290644;22;20444;-84
2024/04/04 02:39:35;;;;;;;3.73;3.40;;;10.20;99.90;;;;;;6292021;22;20469;-86
2024/04/04 02:42:05;;;;;;;5.30;3.63;;;10.20;99.90;;;;;;6291256;22;20397;-84
2024/04/04 02:44:35;;;;;;;4.77;4.37;;;10.20;99.90;;;;;;6291254;22;20730;-84
2024/04/04 02:47:04;;;;;;;4.27;3.90;;;10.30;99.90;;;;;;6292733;22;20412;-83
2024/04/04 02:49:30;;;;;;;11.23;3.93;;;10.20;99.90;;;;;;6291517;22;20474;-84
2024/04/04 02:51:58;;;;;;;5.50;4.50;;;10.20;99.90;;;;;;6295517;22;20401;-81
2024/04/04 02:54:26;;;;;;;4.90;3.73;;;10.20;99.90;;;;;;6288928;22;20438;-84
2024/04/04 02:57:11;;;;;;;4.07;3.67;;;10.20;99.90;;;;;;6290566;22;20519;-84
2024/04/04 02:59:43;;;;;;;4.97;4.57;;;10.30;99.90;;;;;;6290527;22;20417;-84
2024/04/04 03:02:11;;;;;;;4.30;3.90;;;10.20;99.90;;;;;;6296382;22;20396;-83
2024/04/04 03:04:37;;;;;;;4.30;4.03;;;10.20;99.90;;;;;;6303386;22;20417;-85
2024/04/04 03:07:04;;;;;;;5.90;4.47;;;10.20;99.90;;;;;;6292050;22;20378;-84
2024/04/04 03:09:31;;;;;;;4.80;4.40;;;10.20;99.90;;;;;;6291175;22;20451;-84
2024/04/04 03:11:58;;;;;;;4.93;4.50;;;10.30;99.90;;;;;;6290985;22;20379;-84
2024/04/04 03:14:24;;;;;;;4.80;4.40;;;10.30;99.90;;;;;;6290330;22;20466;-84
2024/04/04 03:16:51;;;;;;;5.47;4.10;;;10.20;99.90;;;;;;6290060;22;20499;-83
2024/04/04 03:19:19;;;;;;;4.90;4.50;;;10.30;99.90;;;;;;6288707;22;20458;-84
2024/04/04 03:21:46;;;;;;;4.80;4.23;;;10.30;99.90;;;;;;6289802;22;20412;-84
2024/04/04 03:24:15;;;;;;;4.90;3.80;;;10.30;99.90;;;;;;6286967;22;20383;-83
2024/04/04 03:26:43;;;;;;;4.27;3.90;;;10.30;99.90;;;;;;6290001;22;20487;-82
2024/04/04 03:29:09;;;;;;;4.70;4.30;;;10.20;99.90;;;;;;6304359;22;20428;-81
2024/04/04 03:31:39;;;;;;;5.20;4.40;;;10.20;99.90;;;;;;6304239;22;20409;-83
2024/04/04 03:34:05;;;;;;;4.83;4.27;;;10.10;99.90;;;;;;6304530;22;20408;-82
2024/04/04 03:36:35;;;;;;;5.20;4.10;;;10.10;99.90;;;;;;6205819;22;2108460;-84
2024/04/04 03:39:03;;;;;;;4.87;3.97;;;10.10;99.90;;;;;;6298896;22;20193;-84
2024/04/04 03:41:31;;;;;;;4.60;4.20;;;10.10;99.90;;;;;;6296147;22;20441;-85
2024/04/04 03:43:58;;;;;;;5.10;4.70;;;10.10;99.90;;;;;;6298299;22;20408;-84
2024/04/04 03:46:25;;;;;;;4.97;4.27;;;10.10;99.90;;;;;;6294975;22;20910;-85
2024/04/04 03:48:52;;;;;;;5.13;3.93;;;10.10;99.90;;;;;;6294215;22;20454;-85
2024/04/04 03:51:18;;;;;;;4.83;4.43;;;10.00;99.90;;;;;;6295006;22;20375;-85
2024/04/04 03:53:46;;;;;;;7.83;4.83;;;10.00;99.90;;;;;;6293827;22;20412;-84
2024/04/04 03:56:14;;;;;;;4.80;4.20;;;10.00;99.90;;;;;;6291989;22;21061;-85
2024/04/04 03:58:41;;;;;;;5.80;4.97;;;10.00;99.90;;;;;;6291870;22;20459;-85
2024/04/04 04:01:07;;;;;;;7.40;5.20;;;10.00;99.90;;;;;;6290596;22;20434;-85
2024/04/04 04:03:38;;;;;;;5.20;4.70;;;9.90;99.90;;;;;;6290805;22;20404;-85
2024/04/04 04:06:04;;;;;;;5.40;4.90;;;10.00;99.90;;;;;;6289396;22;20460;-84
2024/04/04 04:08:31;;;;;;;5.93;5.43;;;10.00;99.90;;;;;;6291555;22;20408;-84
2024/04/04 04:10:59;;;;;;;7.50;4.70;;;9.90;99.90;;;;;;6292809;22;20461;-84
2024/04/04 04:13:26;;;;;;;6.67;6.07;;;9.90;99.90;;;;;;6282962;22;20750;-84
2024/04/04 04:15:56;;;;;;;5.17;4.77;;;9.90;99.90;;;;;;6281705;22;20410;-85
2024/04/04 04:18:23;;;;;;;5.20;4.70;;;9.90;99.90;;;;;;6282003;22;20386;-84
2024/04/04 04:23:35;;;;;;;5.67;5.10;;;10.00;99.90;;;;;;6295270;22;20374;-84
2024/04/04 04:26:03;;;;;;;5.00;4.60;;;10.00;99.90;;;;;;6302818;22;20423;-83
2024/04/04 04:28:29;;;;;;;5.23;4.83;;;10.00;99.90;;;;;;6296818;22;20926;-84
2024/04/04 04:30:56;;;;;;;5.63;5.13;;;10.00;99.90;;;;;;6296260;22;20408;-84
2024/04/04 04:33:22;;;;;;;5.23;4.77;;;10.00;99.90;;;;;;6302378;22;20385;-85
2024/04/04 04:35:49;;;;;;;4.70;4.40;;;10.10;99.90;;;;;;6291086;22;20422;-84
2024/04/04 04:38:15;;;;;;;5.50;5.00;;;10.10;99.90;;;;;;6291689;22;20496;-85
2024/04/04 04:40:43;;;;;;;8.33;4.70;;;10.00;99.90;;;;;;6290820;22;20432;-85
2024/04/04 04:43:11;;;;;;;4.50;4.10;;;10.10;99.90;;;;;;6288822;22;20393;-85
2024/04/04 04:45:39;;;;;;;4.83;4.43;;;10.10;99.90;;;;;;6288799;22;20379;-85
2024/04/04 04:48:06;;;;;;;5.43;5.03;;;10.10;99.90;;;;;;6289573;22;20466;-84
2024/04/04 04:50:33;;;;;;;5.57;5.07;;;10.10;99.90;;;;;;6287824;22;20471;-84
2024/04/04 04:52:59;;;;;;;4.97;4.53;;;10.10;99.90;;;;;;6291178;22;20404;-83
2024/04/04 04:55:25;;;;;;;4.73;4.30;;;10.10;99.90;;;;;;6290411;22;20379;-84
2024/04/04 04:57:51;;;;;;;5.00;4.60;;;10.10;99.90;;;;;;6290340;22;20401;-84
2024/04/04 05:00:22;;;;;;;6.57;5.00;;;10.20;99.90;;;;;;6291170;22;20410;-83
2024/04/04 05:02:51;;;;;;;4.60;4.20;;;10.20;99.90;;;;;;6289315;22;20213;-84
2024/04/04 05:05:19;;;;;;;5.03;4.10;;;10.30;99.90;;;;;;6291393;22;20396;-84
2024/04/04 05:07:45;;;;;;;4.63;4.23;;;10.20;99.90;;;;;;6302878;22;20532;-83
2024/04/04 05:10:12;;;;;;;4.63;4.23;;;10.20;99.90;;;;;;6305330;22;20408;-82
2024/04/04 05:12:38;;;;;;;5.00;4.50;;;10.20;99.90;;;;;;6306177;22;20393;-84
2024/04/04 05:15:06;;;;;;;4.90;4.50;;;10.20;99.90;;;;;;6307145;22;20434;-84
2024/04/04 05:17:34;;;;;;;5.10;4.70;;;10.10;99.90;;;;;;6305308;22;20431;-84
2024/04/04 05:20:01;;;;;;;4.77;4.30;;;10.10;99.90;;;;;;6304780;22;20425;-84
2024/04/04 05:22:27;;;;;;;4.67;4.20;;;10.20;99.90;;;;;;6296312;22;20382;-88
2024/04/04 05:24:54;;;;;;;4.90;4.13;;;10.20;99.90;;;;;;6297306;22;20411;-89
2024/04/04 05:27:20;;;;;;;5.43;5.00;;;10.20;99.90;;;;;;6293765;22;20403;-86
2024/04/04 05:29:47;;;;;;;5.97;5.40;;;10.30;99.90;;;;;;6294520;22;20421;-84
2024/04/04 05:32:13;;;;;;;6.50;4.90;;;10.30;99.90;;;;;;6294086;22;20367;-87
2024/04/04 05:34:41;;;;;;;7.40;6.10;;;10.30;99.90;;;;;;6294282;22;20423;-86
2024/04/04 05:37:07;;;;;;;5.53;5.03;;;10.30;99.90;;;;;;6293464;22;20482;-86
2024/04/04 05:39:34;;;;;;;6.00;5.50;;;10.40;99.90;;;;;;6293572;22;20420;-86
2024/04/04 05:42:00;;;;;;;5.43;5.03;;;10.40;99.90;;;;;;6292712;22;20407;-85
2024/04/04 05:44:27;;;;;;;7.07;6.00;;;10.40;99.90;;;;;;6288693;22;20371;-84
2024/04/04 05:46:54;;;;;;;5.47;4.97;;;10.40;99.90;;;;;;6286460;22;20382;-84
2024/04/04 05:49:21;;;;;;;8.67;6.70;;;10.40;99.90;;;;;;6293404;22;20428;-85
2024/04/04 05:51:48;;;;;;;5.63;5.00;;;10.40;99.90;;;;;;6290664;22;20396;-85
2024/04/04 05:54:16;;;;;;;6.00;4.80;;;10.40;99.90;;;;;;6290074;22;20383;-85
2024/04/04 05:56:42;;;;;;;6.80;4.83;;;10.40;99.90;;;;;;6291531;22;20446;-85
2024/04/04 05:59:09;;;;;;;6.90;4.70;;;10.50;99.90;;;;;;6292709;22;20447;-86
2024/04/04 06:01:35;;;;;;;4.97;4.17;;;10.50;99.90;;;;;;6291754;22;20383;-86
2024/04/04 06:04:01;;;;;;;4.23;3.93;;;10.50;99.90;;;;;;6292258;22;20429;-86
2024/04/04 06:06:30;;;;;;;4.90;3.70;;;10.60;99.90;;;;;;6288244;22;20198;-86
2024/04/04 06:08:58;;;;;;;4.77;3.63;;;10.70;99.90;;;;;;6286691;22;20395;-85
2024/04/04 06:11:24;;;;;;;4.20;3.80;;;10.80;99.90;;;;;;6287316;22;20420;-85
2024/04/04 06:13:51;;;;;;;3.93;3.20;;;10.90;99.90;;;;;;6292749;22;20386;-86
2024/04/04 06:16:19;;;;;;;4.97;3.47;;;10.90;99.90;;;;;;6292949;22;20434;-86
2024/04/04 06:18:46;;;;;;;4.23;3.93;;;10.90;99.90;;;;;;6291742;22;20501;-85
2024/04/04 06:21:12;;;;;;;3.67;3.20;;;11.00;99.90;;;;;;6292071;22;20408;-85
2024/04/04 06:23:39;;;;;;;3.03;2.83;;;11.00;99.90;;;;;;6305704;22;20409;-85
2024/04/04 06:26:06;;;;;;;5.50;3.40;;;11.00;75.80;;;;;;6305386;22;20416;-84
2024/04/04 06:28:33;;;;;;;8.93;5.47;;;11.10;46.20;;;;;;6291749;22;20412;-86
2024/04/04 06:30:59;;;;;;;7.30;4.70;;;11.10;1.00;;;;;;6289046;22;20725;-86
2024/04/04 06:33:26;;;;;;;12.13;8.13;;;11.10;1.00;;;;;;6290007;22;20889;-86
2024/04/04 06:35:52;;;;;;;19.03;13.17;;;11.10;1.00;;;;;;6291563;22;20436;-86
2024/04/04 06:38:19;;;;;;;23.30;15.40;;;11.20;1.00;;;;;;6292343;22;20703;-86
2024/04/04 06:40:45;;;;;;;7.60;6.10;;;11.20;1.00;;;;;;6296692;22;20737;-87
2024/04/04 06:43:13;;;;;;;6.13;5.63;;;11.20;1.00;;;;;;6289746;22;20375;-86
2024/04/04 06:45:39;;;;;;;3.90;3.60;;;11.30;1.00;;;;;;6287883;22;20452;-86
2024/04/04 06:48:06;;;;;;;6.00;4.03;;;11.30;1.00;;;;;;6289228;22;20408;-86
2024/04/04 06:50:32;;;;;;;6.33;4.53;;;11.40;1.00;;;;;;6288636;22;20402;-87
2024/04/04 06:52:59;;;;;;;3.90;3.60;;;11.50;1.00;;;;;;6288752;22;20383;-86
2024/04/04 06:55:25;;;;;;;7.10;3.60;;;11.50;1.00;;;;;;6286687;22;20379;-86
2024/04/04 06:57:52;;;;;;;6.33;4.17;;;11.60;99.90;;;;;;6286748;22;20493;-86
2024/04/04 07:00:20;;;;;;;3.77;3.30;;;11.60;99.90;;;;;;6286032;22;20431;-87
2024/04/04 07:02:47;;;;;;;3.30;3.10;;;11.70;99.90;;;;;;6287614;22;20402;-86
2024/04/04 07:05:12;;;;;;;6.40;3.10;;;11.80;99.90;;;;;;6300744;22;20382;-86
2024/04/04 07:07:39;;;;;;;3.80;3.40;;;11.90;97.90;;;;;;6306089;22;20413;-85
2024/04/04 07:10:07;;;;;;;7.67;4.07;;;11.80;1.00;;;;;;6305722;22;20383;-86
2024/04/04 07:12:34;;;;;;;4.17;2.90;;;11.80;1.00;;;;;;6288445;22;20448;-86
2024/04/04 07:15:00;;;;;;;3.13;2.93;;;11.90;99.90;;;;;;6285704;22;20403;-86
2024/04/04 07:17:31;;;;;;;5.40;3.70;;;11.90;99.90;;;;;;6287801;22;20432;-86
2024/04/04 07:19:57;;;;;;;5.73;3.10;;;12.00;99.90;;;;;;6287343;22;20417;-87
2024/04/04 07:22:26;;;;;;;4.37;4.07;;;12.00;99.90;;;;;;6288995;22;20443;-86
2024/04/04 07:24:52;;;;;;;3.27;2.93;;;12.00;99.90;;;;;;6290983;22;20417;-86
2024/04/04 07:27:19;;;;;;;4.73;2.93;;;12.20;99.90;;;;;;6286668;22;20412;-86
2024/04/04 07:29:46;;;;;;;3.17;2.63;;;12.20;99.90;;;;;;6291294;22;20428;-86
2024/04/04 07:32:14;;;;;;;3.80;3.40;;;12.30;99.90;;;;;;6295388;22;20769;-85
2024/04/04 07:34:42;;;;;;;3.57;3.23;;;12.40;42.60;;;;;;6298393;22;20405;-86
2024/04/04 07:37:09;;;;;;;3.07;2.77;;;12.40;78.50;;;;;;6296781;22;20440;-85
2024/04/04 07:39:37;;;;;;;3.63;3.30;;;12.40;99.90;;;;;;6287333;22;20459;-85
2024/04/04 07:42:07;;;;;;;3.73;3.43;;;12.40;99.90;;;;;;6289930;22;20401;-85
2024/04/04 07:44:33;;;;;;;3.73;2.93;;;12.50;99.90;;;;;;6292224;22;20392;-87
2024/04/04 07:47:23;;;;;;;3.20;2.90;;;12.60;99.90;;;;;;6291703;22;20374;-86
2024/04/04 07:49:59;;;;;;;4.83;3.03;;;12.80;99.90;;;;;;6296620;22;20451;-86
2024/04/04 07:52:28;;;;;;;2.80;2.50;;;12.80;99.90;;;;;;6297147;22;20480;-86
2024/04/04 07:54:54;;;;;;;3.47;3.17;;;12.90;99.90;;;;;;6282919;22;20484;-80
2024/04/04 07:57:21;;;;;;;2.83;2.37;;;12.90;99.90;;;;;;6282789;22;20447;-82
2024/04/04 07:59:47;;;;;;;3.67;2.70;;;13.00;38.20;;;;;;6282201;22;20178;-82
2024/04/04 08:02:15;;;;;;;2.77;2.47;;;12.90;1.00;;;;;;6282751;22;20409;-83
2024/04/04 08:04:41;;;;;;;2.70;2.50;;;12.80;1.00;;;;;;6286947;22;20407;-82
2024/04/04 08:07:09;;;;;;;3.67;2.80;;;12.90;1.00;;;;;;6291115;22;20400;-83
2024/04/04 08:09:35;;;;;;;2.43;2.27;;;13.00;1.00;;;;;;6288364;22;20435;-83
2024/04/04 08:12:02;;;;;;;2.30;2.10;;;13.10;1.00;;;;;;6285617;22;20492;-82
2024/04/04 08:14:28;;;;;;;4.10;2.67;;;13.10;1.00;;;;;;6284057;22;20256;-82
2024/04/04 08:16:55;;;;;;;3.57;3.27;;;13.20;1.00;;;;;;6295954;22;20439;-80
2024/04/04 08:19:21;;;;;;;3.93;2.80;;;13.20;1.00;;;;;;6304629;22;20384;-81
2024/04/04 08:21:48;;;;;;;6.03;2.87;;;13.30;1.00;;;;;;6304533;22;20387;-82
2024/04/04 08:24:15;;;;;;;4.43;2.40;;;13.40;1.00;;;;;;6297629;22;20596;-80
2024/04/04 08:26:43;;;;;;;2.63;2.43;;;13.30;1.00;;;;;;6284899;22;20401;-82
2024/04/04 08:29:09;;;;;;;2.20;1.87;;;13.30;1.00;;;;;;6283828;22;20412;-82
2024/04/04 08:31:37;;;;;;;2.20;1.90;;;13.30;1.00;;;;;;6283374;22;20411;-81
2024/04/04 08:34:04;;;;;;;2.33;2.10;;;13.40;1.00;;;;;;6283117;22;20431;-82
2024/04/04 08:36:31;;;;;;;2.97;2.40;;;13.50;1.00;;;;;;6288590;22;20443;-80
2024/04/04 08:38:57;;;;;;;4.50;2.17;;;13.60;1.00;;;;;;6273563;22;20407;-81
2024/04/04 08:41:26;;;;;;;3.13;2.30;;;13.70;1.00;;;;;;6298395;22;20375;-80
2024/04/04 08:43:55;;;;;;;6.27;2.07;;;14.00;1.00;;;;;;6285532;22;20503;-81
2024/04/04 08:46:22;;;;;;;5.70;1.70;;;14.00;1.00;;;;;;6292055;22;20402;-80
2024/04/04 08:48:53;;;;;;;2.43;1.70;;;14.00;1.00;;;;;;6285252;22;20423;-82
2024/04/04 08:51:19;;;;;;;2.37;1.90;;;14.10;1.00;;;;;;6283952;22;20404;-82
2024/04/04 08:53:45;;;;;;;6.50;2.73;;;14.20;1.00;;;;;;6283587;22;20440;-82
2024/04/04 08:56:12;;;;;;;2.67;2.10;;;14.30;1.00;;;;;;6284199;22;20404;-82
2024/04/04 08:58:39;;;;;;;5.97;2.00;;;14.20;1.00;;;;;;6284521;22;20185;-82
2024/04/04 09:01:06;;;;;;;2.80;1.77;;;14.00;1.00;;;;;;6285301;22;20411;-83
2024/04/04 09:03:32;;;;;;;2.23;1.60;;;13.90;1.00;;;;;;6283919;22;20443;-82
2024/04/04 09:06:01;;;;;;;5.27;1.60;;;13.90;1.00;;;;;;6284660;22;20407;-83
2024/04/04 09:08:29;;;;;;;4.13;2.20;;;13.90;1.00;;;;;;6284273;22;20707;-83
2024/04/04 09:11:00;;;;;;;1.53;1.33;;;14.00;1.00;;;;;;6284614;22;20399;-82
2024/04/04 09:13:26;;;;;;;3.47;2.13;;;14.00;1.00;;;;;;6291790;22;20961;-82
2024/04/04 09:16:02;;;;;;;1.70;1.60;;;14.20;1.00;;;;;;6292165;22;20401;-82
2024/04/04 09:18:29;;;;;;;1.77;1.67;;;14.50;1.00;;;;;;6294517;22;20399;-82
2024/04/04 09:20:59;;;;;;;3.53;2.63;;;14.50;1.00;;;;;;6292243;22;20396;-83
2024/04/04 09:23:25;;;;;;;5.67;2.13;;;14.80;1.00;;;;;;6292661;22;20420;-83
2024/04/04 09:25:52;;;;;;;4.10;2.03;;;14.90;1.00;;;;;;6292956;22;20431;-83
2024/04/04 09:28:19;;;;;;;2.40;1.83;;;14.90;1.00;;;;;;6295953;22;20428;-82
2024/04/04 09:30:50;;;;;;;3.07;1.50;;;14.70;1.00;;;;;;6296355;22;20411;-83
2024/04/04 09:33:20;;;;;;;3.20;1.30;;;14.90;1.00;;;;;;6286131;22;20493;-83
2024/04/04 09:35:47;;;;;;;4.60;1.47;;;14.90;1.00;;;;;;6288119;22;20870;-83
2024/04/04 09:38:14;;;;;;;2.67;1.50;;;15.00;1.00;;;;;;6287770;22;20440;-84
2024/04/04 09:40:44;;;;;;;3.70;1.60;;;14.90;1.00;;;;;;6283065;22;20375;-83
2024/04/04 09:43:10;;;;;;;2.87;1.60;;;15.00;1.00;;;;;;6283201;22;20482;-83
2024/04/04 09:45:39;;;;;;;1.50;1.40;;;15.20;1.00;;;;;;6286609;22;20396;-85
2024/04/04 09:48:06;;;;;;;3.97;1.47;;;15.00;1.00;;;;;;6285739;22;20423;-84
2024/04/04 09:50:35;;;;;;;3.27;1.63;;;15.00;1.00;;;;;;6286690;22;20401;-84
2024/04/04 09:53:02;;;;;;;3.27;0.90;;;15.10;1.00;;;;;;6290000;22;20404;-83
2024/04/04 09:55:31;;;;;;;1.23;1.13;;;15.10;1.00;;;;;;6293880;22;20783;-82
2024/04/04 09:57:57;;;;;;;2.40;1.50;;;15.10;1.00;;;;;;6287694;22;20493;-83
2024/04/04 10:00:27;;;;;;;2.27;1.27;;;15.10;1.00;;;;;;6288743;22;20400;-84
2024/04/04 10:02:55;;;;;;;5.63;1.60;;;14.90;1.00;;;;;;6287307;22;20395;-85
2024/04/04 10:05:23;;;;;;;3.80;1.00;;;14.90;1.00;;;;;;6292431;22;20400;-83
2024/04/04 10:07:51;;;;;;;2.30;1.57;;;14.60;1.00;;;;;;6285503;22;20414;-83
2024/04/04 10:10:19;;;;;;;3.80;2.00;;;14.50;1.00;;;;;;6285873;22;20420;-84
2024/04/04 10:12:49;;;;;;;2.50;1.70;;;14.50;1.00;;;;;;6287659;22;20410;-84
2024/04/04 10:15:21;;;;;;;5.03;1.40;;;14.50;1.00;;;;;;6291230;22;20416;-85
2024/04/04 10:17:50;;;;;;;5.87;1.60;;;14.40;1.00;;;;;;6294617;22;20466;-84
2024/04/04 10:20:18;;;;;;;4.50;1.97;;;14.40;1.00;;;;;;6292542;22;20408;-83
2024/04/04 10:22:44;;;;;;;1.40;1.30;;;14.30;1.00;;;;;;6302624;22;20414;-83
2024/04/04 10:25:23;;;;;;;2.57;1.47;;;14.30;1.00;;;;;;6301587;22;20419;-84
2024/04/04 10:27:49;;;;;;;4.53;2.10;;;14.50;1.00;;;;;;6293269;22;20434;-84
2024/04/04 10:30:19;;;;;;;2.80;1.97;;;14.60;1.00;;;;;;6289348;22;20405;-85
2024/04/04 10:32:45;;;;;;;3.03;1.67;;;14.90;1.00;;;;;;6290089;22;20383;-85
2024/04/04 10:35:14;;;;;;;2.20;1.97;;;15.00;1.00;;;;;;6288495;22;20433;-85
2024/04/04 10:37:40;;;;;;;2.03;1.30;;;15.10;1.00;;;;;;6290600;22;20440;-85
2024/04/04 10:40:08;;;;;;;5.73;1.50;;;15.10;1.00;;;;;;6291682;22;20431;-83
2024/04/04 10:42:36;;;;;;;2.50;1.20;;;15.10;1.00;;;;;;6298360;22;20435;-84
2024/04/04 10:45:03;;;;;;;3.30;1.53;;;15.10;1.00;;;;;;6299078;22;20428;-83
2024/04/04 10:47:30;;;;;;;1.67;1.20;;;14.90;1.00;;;;;;6289012;22;20428;-84
2024/04/04 10:49:57;;;;;;;2.70;1.60;;;14.50;1.00;;;;;;6287693;22;20405;-84
2024/04/04 10:52:23;;;;;;;3.10;1.80;;;14.20;1.00;;;;;;6289282;22;20487;-84
2024/04/04 10:54:50;;;;;;;2.23;1.60;;;14.00;1.00;;;;;;6285088;22;20435;-84
2024/04/04 10:57:16;;;;;;;5.20;1.90;;;13.70;1.00;;;;;;6284014;22;20447;-84
2024/04/04 10:59:44;;;;;;;4.80;2.07;;;13.60;1.00;;;;;;6287003;22;20405;-84
2024/04/04 11:02:12;;;;;;;3.43;3.13;;;13.50;52.80;;;;;;6288367;22;20424;-84
2024/04/04 11:04:40;;;;;;;3.80;2.20;;;13.50;99.90;;;;;;6287457;22;20522;-84
2024/04/04 11:07:07;;;;;;;2.60;1.70;;;13.30;99.90;;;;;;6286364;22;20439;-84
2024/04/04 11:09:36;;;;;;;2.50;1.67;;;13.20;1.00;;;;;;6284417;22;20405;-84
2024/04/04 11:12:03;;;;;;;1.77;1.60;;;13.00;1.00;;;;;;6288262;22;20404;-84
2024/04/04 11:14:30;;;;;;;2.60;1.60;;;12.80;99.90;;;;;;6288879;22;20416;-85
2024/04/04 11:16:57;;;;;;;1.87;1.70;;;12.70;99.90;;;;;;6290342;22;20463;-86
2024/04/04 11:19:24;;;;;;;4.23;1.97;;;12.70;99.90;;;;;;6289624;22;20415;-84
2024/04/04 11:21:52;;;;;;;4.77;2.37;;;12.70;99.90;;;;;;6289854;22;20431;-84
2024/04/04 11:24:21;;;;;;;2.07;1.80;;;12.80;1.00;;;;;;6291327;22;20411;-84
2024/04/04 11:26:47;;;;;;;2.47;1.97;;;12.80;99.90;;;;;;6287907;22;20438;-86
2024/04/04 11:29:14;;;;;;;5.10;2.37;;;12.70;99.90;;;;;;6288326;22;20400;-85
2024/04/04 11:31:40;;;;;;;2.30;2.20;;;12.70;99.90;;;;;;6288897;22;20227;-84
2024/04/04 11:34:09;;;;;;;3.10;1.97;;;12.60;1.00;;;;;;6287949;22;20424;-84
2024/04/04 11:36:35;;;;;;;4.30;2.70;;;12.60;99.90;;;;;;6298330;22;20291;-84
2024/04/04 11:39:03;;;;;;;6.10;3.07;;;12.50;99.90;;;;;;6293482;22;20405;-86
2024/04/04 11:41:29;;;;;;;4.07;2.80;;;12.40;1.00;;;;;;6294830;22;20400;-84
2024/04/04 11:43:55;;;;;;;4.00;2.90;;;12.50;99.90;;;;;;6297732;22;20424;-82
2024/04/04 11:46:22;;;;;;;2.97;2.47;;;12.60;99.90;;;;;;6299549;22;20411;-83
2024/04/04 11:48:49;;;;;;;3.10;2.50;;;12.60;1.00;;;;;;6300134;22;20407;-83
2024/04/04 11:51:16;;;;;;;2.47;2.10;;;12.70;99.90;;;;;;6301984;22;20403;-85
2024/04/04 11:53:43;;;;;;;2.70;1.70;;;12.80;68.40;;;;;;6304725;22;20436;-84
2024/04/04 11:56:09;;;;;;;4.80;2.50;;;12.90;99.90;;;;;;6302089;22;20381;-83
2024/04/04 11:58:38;;;;;;;5.53;2.23;;;13.20;99.90;;;;;;6299556;22;20432;-84
2024/04/04 12:01:04;;;;;;;12.43;3.50;;;13.20;1.00;;;;;;6292151;22;20415;-85
2024/04/04 12:03:31;;;;;;;3.13;2.03;;;13.30;22.80;;;;;;6292321;22;20421;-85
2024/04/04 12:05:57;;;;;;;3.67;2.00;;;13.40;1.00;;;;;;6289860;22;20383;-83
2024/04/04 12:08:25;;;;;;;3.33;2.40;;;13.40;1.00;;;;;;6291776;22;20371;-84
2024/04/04 12:10:52;;;;;;;5.87;2.50;;;13.40;99.90;;;;;;6291048;22;20404;-85
2024/04/04 12:13:20;;;;;;;3.53;2.37;;;13.30;99.90;;;;;;6287300;22;20446;-84
2024/04/04 12:15:49;;;;;;;10.50;4.20;;;13.30;99.90;;;;;;6288556;22;20408;-83
2024/04/04 12:21:01;;;;;;;4.63;2.53;;;13.10;99.90;;;;;;6292573;22;20368;-85
2024/04/04 12:23:30;;;;;;;3.10;2.90;;;13.00;99.90;;;;;;6291274;22;20796;-84
2024/04/04 12:25:58;;;;;;;2.73;2.50;;;13.10;1.00;;;;;;6291981;22;20444;-82
2024/04/04 12:28:24;;;;;;;4.90;2.10;;;13.00;1.00;;;;;;6295287;22;20465;-84
2024/04/04 12:30:51;;;;;;;3.43;3.13;;;13.00;1.00;;;;;;6293122;22;20466;-84
2024/04/04 12:33:16;;;;;;;4.33;2.80;;;13.00;1.00;;;;;;6292605;22;20428;-84
2024/04/04 12:35:43;;;;;;;3.30;2.97;;;12.90;1.00;;;;;;6288465;22;20400;-83
2024/04/04 12:38:09;;;;;;;4.73;3.60;;;12.90;1.00;;;;;;6289331;22;20205;-83
2024/04/04 12:40:39;;;;;;;7.23;3.37;;;12.90;81.90;;;;;;6291435;22;20384;-84
2024/04/04 12:43:05;;;;;;;4.60;3.23;;;12.90;99.90;;;;;;6284511;22;20428;-84
2024/04/04 12:45:32;;;;;;;5.70;3.97;;;12.80;99.90;;;;;;6285773;22;20411;-84
2024/04/04 12:47:58;;;;;;;3.60;3.40;;;12.90;99.90;;;;;;6288968;22;20181;-83
2024/04/04 12:50:24;;;;;;;6.87;6.23;;;12.90;99.90;;;;;;6285664;22;20400;-84
2024/04/04 12:52:51;;;;;;;4.20;3.80;;;12.80;99.90;;;;;;6283406;22;20432;-83
2024/04/04 12:55:18;;;;;;;7.50;4.10;;;12.70;99.90;;;;;;6286790;22;20385;-83
2024/04/04 12:57:45;;;;;;;4.50;3.80;;;12.60;99.90;;;;;;6286568;22;20451;-83
2024/04/04 13:00:13;;;;;;;7.57;4.37;;;12.60;99.90;;;;;;6284714;22;20408;-83
2024/04/04 13:02:39;;;;;;;4.60;3.87;;;12.60;99.90;;;;;;6285363;22;20975;-83
2024/04/04 13:05:06;;;;;;;6.43;4.40;;;12.60;99.90;;;;;;6287458;22;20424;-84
2024/04/04 13:07:32;;;;;;;4.60;4.17;;;12.60;99.90;;;;;;6298994;22;20403;-84
2024/04/04 13:09:59;;;;;;;4.57;4.10;;;12.60;99.90;;;;;;6295496;22;20400;-84
2024/04/04 13:12:25;;;;;;;5.67;5.00;;;12.60;99.90;;;;;;6283321;22;20447;-84
2024/04/04 13:14:53;;;;;;;4.73;4.33;;;12.60;99.90;;;;;;6281254;22;20420;-84
2024/04/04 13:17:19;;;;;;;7.00;6.30;;;12.60;99.90;;;;;;6281668;22;20197;-84
2024/04/04 13:19:45;;;;;;;7.27;5.80;;;12.70;99.90;;;;;;6280912;22;20405;-84
2024/04/04 13:22:11;;;;;;;5.70;5.20;;;12.80;99.90;;;;;;6290954;22;20177;-83
2024/04/04 13:24:38;;;;;;;5.73;5.13;;;12.90;99.90;;;;;;6289837;22;20435;-84
2024/04/04 13:27:05;;;;;;;6.17;5.67;;;12.90;99.90;;;;;;6288018;22;20420;-84
2024/04/04 13:29:32;;;;;;;5.83;4.90;;;12.90;99.90;;;;;;6289283;22;20404;-84
2024/04/04 13:31:59;;;;;;;7.00;4.97;;;13.00;99.90;;;;;;6290694;22;20405;-84
2024/04/04 13:34:26;;;;;;;5.63;5.03;;;13.00;99.90;;;;;;6300204;22;20481;-84
2024/04/04 13:36:52;;;;;;;4.97;4.57;;;12.90;99.90;;;;;;6305627;22;20400;-84
2024/04/04 13:39:19;;;;;;;4.50;4.10;;;12.90;99.90;;;;;;6291458;22;20871;-84